Terminal Aerodrome Forecast
Issued by NWS

Home | Current Version | Previous Version | Text Only | Print | Product List | Glossary On
Versions: 1 2 3 4 5 6 7 8 9 10 11 12 13 14 15 16 17 18 19 20 21 22
000
FTUS45 KBOI 021726
TAFTWF
TAF
KTWF 021726Z 0218/0318 03008KT P6SM SCT250
     FM030300 19011KT P6SM BKN150
     FM031200 24010G20KT P6SM VCSH OVC150=

USA.gov is the U.S. government's official web portal to all federal, state and local government web resources and services.